createdAt,value
2022-11-21T00:01:22.502Z,0.10
2022-11-21T00:03:51.962Z,0.00
2022-11-21T00:06:20.574Z,0.00
2022-11-21T00:08:48.868Z,0.10
2022-11-21T00:11:17.317Z,0.10
2022-11-21T00:13:45.526Z,0.10
2022-11-21T00:16:15.637Z,0.10
2022-11-21T00:18:44.181Z,0.10
2022-11-21T00:21:15.892Z,0.10
2022-11-21T00:23:44.514Z,0.10
2022-11-21T00:26:14.049Z,0.10
2022-11-21T00:28:42.664Z,0.10
2022-11-21T00:31:18.736Z,0.10
2022-11-21T00:33:46.855Z,0.10
2022-11-21T00:36:16.303Z,0.10
2022-11-21T00:38:44.386Z,0.10
2022-11-21T00:41:12.448Z,0.10
2022-11-21T00:43:42.960Z,0.20
2022-11-21T00:46:10.985Z,0.10
2022-11-21T00:48:39.065Z,0.20
2022-11-21T00:51:07.184Z,0.10
2022-11-21T00:53:36.636Z,0.10
2022-11-21T00:56:04.701Z,0.10
2022-11-21T00:58:32.777Z,0.10
2022-11-21T01:01:09.081Z,0.10
2022-11-21T01:03:37.732Z,0.10
2022-11-21T01:06:09.850Z,0.10
2022-11-21T01:08:41.173Z,0.00
2022-11-21T01:11:11.735Z,0.00
2022-11-21T01:13:40.318Z,0.00
2022-11-21T01:16:10.290Z,0.00
2022-11-21T01:18:38.652Z,0.00
2022-11-21T01:21:09.726Z,0.00
2022-11-21T01:23:39.226Z,0.00
2022-11-21T01:26:13.785Z,0.00
2022-11-21T01:28:41.996Z,0.00
2022-11-21T01:31:11.725Z,-0.10
2022-11-21T01:33:40.375Z,-0.10
2022-11-21T01:36:12.805Z,-0.10
2022-11-21T01:38:44.140Z,-0.20
2022-11-21T01:41:13.350Z,-0.30
2022-11-21T01:43:41.619Z,-0.40
2022-11-21T01:46:14.214Z,-0.50
2022-11-21T01:48:49.702Z,-0.50
2022-11-21T01:51:22.338Z,-0.60
2022-11-21T01:53:57.165Z,-0.70
2022-11-21T01:56:26.088Z,-0.70
2022-11-21T01:58:57.895Z,-0.60
2022-11-21T02:01:26.297Z,-0.70
2022-11-21T02:03:56.314Z,-0.70
2022-11-21T02:06:25.737Z,-0.80
2022-11-21T02:08:55.346Z,-0.80
2022-11-21T02:11:30.820Z,-0.80
2022-11-21T02:13:59.866Z,-0.90
2022-11-21T02:16:28.394Z,-0.90
2022-11-21T02:18:56.583Z,-1.00
2022-11-21T02:21:34.059Z,-1.10
2022-11-21T02:24:11.449Z,-1.10
2022-11-21T02:26:41.575Z,-1.10
2022-11-21T02:29:09.564Z,-1.20
2022-11-21T02:31:37.650Z,-1.20
2022-11-21T02:34:06.565Z,-1.20
2022-11-21T02:36:41.417Z,-1.30
2022-11-21T02:39:12.988Z,-1.30
2022-11-21T02:41:47.060Z,-1.30
2022-11-21T02:44:23.403Z,-1.30
2022-11-21T02:46:53.087Z,-1.40
2022-11-21T02:49:30.913Z,-1.40
2022-11-21T02:52:01.447Z,-1.30
2022-11-21T02:54:29.731Z,-1.40
2022-11-21T02:56:59.298Z,-1.40
2022-11-21T02:59:27.295Z,-1.50
2022-11-21T03:01:57.593Z,-1.50
2022-11-21T03:04:26.057Z,-1.50
2022-11-21T03:06:54.255Z,-1.50
2022-11-21T03:09:22.355Z,-1.60
2022-11-21T03:11:50.349Z,-1.60
2022-11-21T03:14:19.775Z,-1.60
2022-11-21T03:16:47.777Z,-1.70
2022-11-21T03:19:15.816Z,-1.60
2022-11-21T03:21:43.793Z,-1.60
2022-11-21T03:24:11.884Z,-1.60
2022-11-21T03:26:39.893Z,-1.60
2022-11-21T03:29:08.393Z,-1.50
2022-11-21T03:31:37.773Z,-1.60
2022-11-21T03:34:06.652Z,-1.70
2022-11-21T03:36:34.649Z,-1.70
2022-11-21T03:39:02.743Z,-1.60
2022-11-21T03:41:30.750Z,-1.60
2022-11-21T03:43:59.452Z,-1.60
2022-11-21T03:46:27.809Z,-1.50
2022-11-21T03:48:57.219Z,-1.60
2022-11-21T03:51:25.964Z,-1.50
2022-11-21T03:53:54.482Z,-1.50
2022-11-21T03:56:22.762Z,-1.60
2022-11-21T03:58:50.892Z,-1.60
2022-11-21T04:01:19.178Z,-1.60
2022-11-21T04:03:49.838Z,-1.60
2022-11-21T04:06:21.154Z,-1.60
2022-11-21T04:08:49.720Z,-1.70
2022-11-21T04:11:18.787Z,-1.70
2022-11-21T04:13:46.877Z,-1.70
2022-11-21T04:16:14.900Z,-1.80
2022-11-21T04:18:42.898Z,-1.80
2022-11-21T04:21:10.995Z,-1.80
2022-11-21T04:23:40.289Z,-1.80
2022-11-21T04:26:08.264Z,-1.80
2022-11-21T04:28:36.389Z,-1.80
2022-11-21T04:31:10.000Z,-1.80
2022-11-21T04:33:39.269Z,-1.80
2022-11-21T04:36:08.416Z,-1.90
2022-11-21T04:38:36.421Z,-1.90
2022-11-21T04:41:06.012Z,-1.90
2022-11-21T04:43:34.259Z,-1.80
2022-11-21T04:46:02.287Z,-1.90
2022-11-21T04:48:30.366Z,-2.00
2022-11-21T04:50:58.370Z,-2.00
2022-11-21T04:53:26.442Z,-2.00
2022-11-21T04:55:54.558Z,-2.00
2022-11-21T04:58:23.896Z,-2.10
2022-11-21T05:00:52.081Z,-2.10
2022-11-21T05:03:20.057Z,-2.20
2022-11-21T05:05:48.626Z,-2.30
2022-11-21T05:08:16.641Z,-2.30
2022-11-21T05:11:02.509Z,-2.20
2022-11-21T05:13:31.970Z,-2.30
2022-11-21T05:16:00.156Z,-2.40
2022-11-21T05:18:28.255Z,-2.40
2022-11-21T05:20:56.242Z,-2.30
2022-11-21T05:23:24.333Z,-2.30
2022-11-21T05:25:52.487Z,-2.30
2022-11-21T05:28:20.448Z,-2.40
2022-11-21T05:30:49.813Z,-2.40
2022-11-21T05:33:18.016Z,-2.30
2022-11-21T05:35:46.007Z,-2.40
2022-11-21T05:38:14.310Z,-2.40
2022-11-21T05:40:42.377Z,-2.40
2022-11-21T05:43:30.178Z,-2.40
2022-11-21T05:45:59.570Z,-2.40
2022-11-21T05:48:27.659Z,-2.30
2022-11-21T05:50:55.765Z,-2.30
2022-11-21T05:53:23.832Z,-2.20
2022-11-21T05:55:51.904Z,-2.30
2022-11-21T05:58:19.972Z,-2.30
2022-11-21T06:00:48.145Z,-2.30
2022-11-21T06:03:30.299Z,-2.30
2022-11-21T06:06:04.155Z,-2.30
2022-11-21T06:08:34.883Z,-2.30
2022-11-21T06:11:03.732Z,-2.30
2022-11-21T06:13:33.719Z,-2.30
2022-11-21T06:16:03.754Z,-2.30
2022-11-21T06:18:36.380Z,-2.30
2022-11-21T06:21:05.215Z,-2.20
2022-11-21T06:23:33.469Z,-2.20
2022-11-21T06:26:05.372Z,-2.20
2022-11-21T06:28:35.799Z,-2.20
2022-11-21T06:31:05.048Z,-2.20
2022-11-21T06:33:35.027Z,-2.20
2022-11-21T06:36:04.260Z,-2.20
2022-11-21T06:38:32.251Z,-2.10
2022-11-21T06:41:04.348Z,-2.10
2022-11-21T06:43:32.321Z,-2.10
2022-11-21T06:46:01.512Z,-2.00
2022-11-21T06:48:29.574Z,-2.00
2022-11-21T06:51:06.367Z,-2.00
2022-11-21T06:53:34.535Z,-1.90
2022-11-21T06:56:03.004Z,-1.80
2022-11-21T06:58:31.240Z,-1.60
2022-11-21T07:00:59.400Z,-1.50
2022-11-21T07:03:27.442Z,-1.40
2022-11-21T07:05:58.697Z,-1.40
2022-11-21T07:08:28.331Z,-1.30
2022-11-21T07:11:23.192Z,-1.20
2022-11-21T07:13:44.528Z,-1.20
2022-11-21T07:16:14.872Z,-1.20
2022-11-21T07:18:44.560Z,-1.10
2022-11-21T07:21:12.616Z,-1.10
2022-11-21T07:23:42.000Z,-1.00
2022-11-21T07:26:12.113Z,-0.90
2022-11-21T07:28:40.154Z,-0.90
2022-11-21T07:31:13.799Z,-0.90
2022-11-21T07:33:44.241Z,-0.80
2022-11-21T07:36:12.708Z,-0.80
2022-11-21T07:38:42.512Z,-0.70
2022-11-21T07:41:10.771Z,-0.60
2022-11-21T07:43:38.761Z,-0.50
2022-11-21T07:46:06.837Z,-0.50
2022-11-21T07:48:34.818Z,-0.40
2022-11-21T07:51:06.027Z,-0.30
2022-11-21T07:53:34.330Z,-0.20
2022-11-21T07:56:04.880Z,-0.20
2022-11-21T07:58:33.025Z,-0.20
2022-11-21T08:01:05.322Z,-0.10
2022-11-21T08:03:33.681Z,0.00
2022-11-21T08:06:03.935Z,0.10
2022-11-21T08:08:32.539Z,0.20
2022-11-21T08:11:04.819Z,0.40
2022-11-21T08:13:34.800Z,0.50
2022-11-21T08:16:04.840Z,0.70
2022-11-21T08:18:33.569Z,0.80
2022-11-21T08:21:02.517Z,1.00
2022-11-21T08:23:30.895Z,1.20
2022-11-21T08:25:58.966Z,1.40
2022-11-21T08:28:27.301Z,1.60
2022-11-21T08:30:56.858Z,1.90
2022-11-21T08:33:25.073Z,2.30
2022-11-21T08:35:53.061Z,2.90
2022-11-21T08:38:21.094Z,3.60
2022-11-21T08:41:13.354Z,4.30
2022-11-21T08:43:44.267Z,4.90
2022-11-21T08:46:13.660Z,5.60
2022-11-21T08:48:43.893Z,6.00
2022-11-21T08:51:11.921Z,6.30
2022-11-21T08:53:39.916Z,6.60
2022-11-21T08:56:07.987Z,7.10
2022-11-21T08:58:35.957Z,7.60
2022-11-21T09:01:04.008Z,8.10
2022-11-21T09:03:33.482Z,8.30
2022-11-21T09:06:01.939Z,8.20
2022-11-21T09:08:32.494Z,8.00
2022-11-21T09:11:04.561Z,8.20
2022-11-21T09:13:32.632Z,8.20
2022-11-21T09:16:20.673Z,8.20
2022-11-21T09:18:52.595Z,8.20
2022-11-21T09:21:21.512Z,8.30
2022-11-21T09:23:49.489Z,8.30
2022-11-21T09:26:17.548Z,8.30
2022-11-21T09:28:45.546Z,8.00
2022-11-21T09:31:13.804Z,8.10
2022-11-21T09:33:41.830Z,8.10
2022-11-21T09:36:11.228Z,8.00
2022-11-21T09:38:39.200Z,7.60
2022-11-21T09:41:32.257Z,7.40
2022-11-21T09:44:06.529Z,7.10
2022-11-21T09:46:41.060Z,6.80
2022-11-21T09:49:13.548Z,6.40
2022-11-21T09:51:46.173Z,6.40
2022-11-21T09:54:19.748Z,6.30
2022-11-21T09:56:48.977Z,6.30
2022-11-21T09:59:30.454Z,6.30
2022-11-21T10:01:58.668Z,6.30
2022-11-21T10:04:28.547Z,6.40
2022-11-21T10:07:04.107Z,6.50
2022-11-21T10:09:44.536Z,6.50
2022-11-21T10:12:37.985Z,6.90
2022-11-21T10:15:17.082Z,7.30
2022-11-21T10:17:58.235Z,7.60
2022-11-21T10:20:39.913Z,7.90
2022-11-21T10:23:31.128Z,8.00
2022-11-21T10:26:13.862Z,8.20
2022-11-21T10:28:49.131Z,8.20
2022-11-21T10:31:20.475Z,8.30
2022-11-21T10:33:50.509Z,8.30
2022-11-21T10:36:27.725Z,8.30
2022-11-21T10:39:02.130Z,8.20
2022-11-21T10:41:41.064Z,8.20
2022-11-21T10:44:41.104Z,8.20
2022-11-21T10:47:16.802Z,8.20
2022-11-21T10:49:47.957Z,8.10
2022-11-21T10:52:20.482Z,8.00
2022-11-21T10:55:09.115Z,7.80
2022-11-21T10:57:45.187Z,7.60
2022-11-21T11:00:21.069Z,7.40
2022-11-21T11:03:07.235Z,7.20
2022-11-21T11:05:37.282Z,6.90
2022-11-21T11:08:08.694Z,6.80
2022-11-21T11:10:40.471Z,6.70
2022-11-21T11:13:50.466Z,6.70
2022-11-21T11:16:21.574Z,6.60
2022-11-21T11:18:56.943Z,6.50
2022-11-21T11:21:27.789Z,6.50
2022-11-21T11:24:07.504Z,6.30
2022-11-21T11:26:52.357Z,6.20
2022-11-21T11:29:22.194Z,6.10
2022-11-21T11:31:55.588Z,6.00
2022-11-21T11:34:25.240Z,6.00
2022-11-21T11:37:04.079Z,5.90
2022-11-21T11:39:39.571Z,5.80
2022-11-21T11:42:54.143Z,5.80
2022-11-21T11:46:00.071Z,5.70
2022-11-21T11:48:30.106Z,5.80
2022-11-21T11:51:04.507Z,5.70
2022-11-21T11:53:36.158Z,5.70
2022-11-21T11:56:13.003Z,5.70
2022-11-21T11:58:47.285Z,5.70
2022-11-21T12:01:20.060Z,5.60
2022-11-21T12:03:57.950Z,5.50
2022-11-21T12:06:54.723Z,5.40
2022-11-21T12:09:24.711Z,5.40
2022-11-21T12:12:10.614Z,5.30
2022-11-21T12:15:20.611Z,5.30
2022-11-21T12:17:55.498Z,5.20
2022-11-21T12:20:29.069Z,5.20
2022-11-21T12:22:58.615Z,5.20
2022-11-21T12:25:31.180Z,5.20
2022-11-21T12:27:59.901Z,5.30
2022-11-21T12:30:54.693Z,5.30
2022-11-21T12:33:24.388Z,5.30
2022-11-21T12:36:17.848Z,5.30
2022-11-21T12:39:11.742Z,5.30
2022-11-21T12:42:06.588Z,5.30
2022-11-21T12:44:49.960Z,5.20
2022-11-21T12:47:57.109Z,5.20
2022-11-21T12:50:48.742Z,5.20
2022-11-21T12:53:43.422Z,5.20
2022-11-21T12:56:21.342Z,5.20
2022-11-21T12:58:53.481Z,5.20
2022-11-21T13:01:28.813Z,5.20
2022-11-21T13:04:01.450Z,5.20
2022-11-21T13:06:32.647Z,5.30
2022-11-21T13:09:03.384Z,5.20
2022-11-21T13:12:00.748Z,5.20
2022-11-21T13:14:34.660Z,5.20
2022-11-21T13:17:15.200Z,5.20
2022-11-21T13:19:52.596Z,5.10
2022-11-21T13:23:07.857Z,5.10
2022-11-21T13:25:47.698Z,5.00
2022-11-21T13:28:40.757Z,5.10
2022-11-21T13:31:30.973Z,5.10
2022-11-21T13:33:59.699Z,5.10
2022-11-21T13:36:45.658Z,5.00
2022-11-21T13:39:35.823Z,5.00
2022-11-21T13:42:31.972Z,5.00
2022-11-21T13:45:00.929Z,5.00
2022-11-21T13:48:02.555Z,5.00
2022-11-21T13:50:56.062Z,5.00
2022-11-21T13:53:56.398Z,4.90
2022-11-21T13:56:33.561Z,4.80
2022-11-21T13:59:11.123Z,4.70
2022-11-21T14:02:06.020Z,4.70
2022-11-21T14:04:56.511Z,4.70
2022-11-21T14:07:27.295Z,4.60
2022-11-21T14:09:58.251Z,4.60
2022-11-21T14:12:34.372Z,4.60
2022-11-21T14:15:32.722Z,4.60
2022-11-21T14:18:02.247Z,4.60
2022-11-21T14:20:34.673Z,4.60
2022-11-21T14:23:05.530Z,4.60
2022-11-21T14:25:42.727Z,4.60
2022-11-21T14:28:13.959Z,4.60
2022-11-21T14:30:44.782Z,4.60
2022-11-21T14:33:23.932Z,4.50
2022-11-21T14:35:55.699Z,4.50
2022-11-21T14:38:24.992Z,4.50
2022-11-21T14:41:26.794Z,4.50
2022-11-21T14:44:22.595Z,4.40
2022-11-21T14:47:04.282Z,4.40
2022-11-21T14:49:32.706Z,4.40
2022-11-21T14:52:17.279Z,4.40
2022-11-21T14:55:15.327Z,4.30
2022-11-21T14:57:42.907Z,4.30
2022-11-21T15:00:43.336Z,4.20
2022-11-21T15:03:04.381Z,4.10
2022-11-21T15:11:15.044Z,3.90
2022-11-21T15:14:12.622Z,3.90
2022-11-21T15:16:35.053Z,3.90
2022-11-21T15:19:09.389Z,3.80
2022-11-21T15:21:37.546Z,3.80
2022-11-21T15:24:18.553Z,3.70
2022-11-21T15:26:47.369Z,3.70
2022-11-21T15:29:22.253Z,3.60
2022-11-21T15:32:10.501Z,3.60
2022-11-21T15:34:42.468Z,3.60
2022-11-21T15:37:17.283Z,3.60
2022-11-21T15:39:48.017Z,3.60
2022-11-21T15:42:30.135Z,3.60
2022-11-21T15:45:01.009Z,3.60
2022-11-21T15:47:29.562Z,3.50
2022-11-21T15:49:57.633Z,3.50
2022-11-21T15:52:25.907Z,3.50
2022-11-21T15:54:53.901Z,3.50
2022-11-21T15:57:22.572Z,3.50
2022-11-21T15:59:50.952Z,3.50
2022-11-21T16:02:20.480Z,3.50
2022-11-21T16:04:49.539Z,3.50
2022-11-21T16:07:17.646Z,3.50
2022-11-21T16:09:46.243Z,3.50
2022-11-21T16:12:14.314Z,3.50
2022-11-21T16:14:42.367Z,3.50
2022-11-21T16:17:10.489Z,3.50
2022-11-21T16:19:39.849Z,3.50
2022-11-21T16:22:07.982Z,3.50
2022-11-21T16:24:35.998Z,3.50
2022-11-21T16:27:06.263Z,3.40
2022-11-21T16:29:34.331Z,3.40
2022-11-21T16:32:02.393Z,3.40
2022-11-21T16:34:33.058Z,3.30
2022-11-21T17:04:20.499Z,3.20
2022-11-21T17:06:51.358Z,3.20
2022-11-21T17:12:48.017Z,3.30
2022-11-21T17:16:00.738Z,3.30
2022-11-21T17:18:53.184Z,3.20
2022-11-21T17:22:02.536Z,3.20
2022-11-21T17:24:53.837Z,3.20
2022-11-21T17:27:36.147Z,3.30
2022-11-21T17:30:05.188Z,3.40
2022-11-21T17:32:59.827Z,3.40
2022-11-21T17:35:46.230Z,3.40
2022-11-21T17:39:07.126Z,3.40
2022-11-21T17:45:22.026Z,3.40
2022-11-21T17:48:13.446Z,3.40
2022-11-21T17:54:59.872Z,3.50
2022-11-21T17:57:50.137Z,3.60
2022-11-21T18:00:19.076Z,3.60
2022-11-21T18:02:49.727Z,3.60
2022-11-21T18:05:18.212Z,3.60
2022-11-21T18:07:47.171Z,3.60
2022-11-21T18:10:41.416Z,3.70
2022-11-21T18:13:06.157Z,3.60
2022-11-21T18:15:34.844Z,3.60
2022-11-21T18:18:05.743Z,3.70
2022-11-21T18:20:33.792Z,3.70
2022-11-21T18:23:01.862Z,3.70
2022-11-21T18:25:29.923Z,3.80
2022-11-21T18:28:00.242Z,3.90
2022-11-21T18:30:29.638Z,3.90
2022-11-21T18:32:57.697Z,3.80
2022-11-21T18:35:26.481Z,3.90
2022-11-21T18:37:55.580Z,3.90
2022-11-21T18:40:23.769Z,3.90
2022-11-21T18:42:54.134Z,3.90
2022-11-21T18:45:22.300Z,3.90
2022-11-21T18:47:54.010Z,3.90
2022-11-21T18:50:22.219Z,3.90
2022-11-21T18:52:50.300Z,3.90
2022-11-21T18:55:18.423Z,3.90
2022-11-21T18:57:47.015Z,3.90
2022-11-21T19:00:18.535Z,3.90
2022-11-21T19:02:48.052Z,3.90
2022-11-21T19:05:20.527Z,3.90
2022-11-21T19:07:49.010Z,3.90
2022-11-21T19:10:41.822Z,3.90
2022-11-21T19:13:05.880Z,3.90
2022-11-21T19:15:38.282Z,3.90
2022-11-21T19:18:08.799Z,3.90
2022-11-21T19:20:39.253Z,4.00
2022-11-21T19:23:07.899Z,4.00
2022-11-21T19:25:36.683Z,4.00
2022-11-21T19:28:05.059Z,4.00
2022-11-21T19:30:33.061Z,4.10
2022-11-21T19:33:03.604Z,4.10
2022-11-21T19:35:34.589Z,4.10
2022-11-21T19:38:04.107Z,4.10
2022-11-21T19:40:52.394Z,4.10
2022-11-21T19:43:20.548Z,4.20
2022-11-21T19:45:53.715Z,4.10
2022-11-21T19:48:25.861Z,4.20
2022-11-21T19:51:01.134Z,4.20
2022-11-21T19:53:34.631Z,4.20
2022-11-21T19:56:09.477Z,4.20
2022-11-21T19:58:43.733Z,4.20
2022-11-21T20:01:13.258Z,4.20
2022-11-21T20:03:42.803Z,4.30
2022-11-21T20:06:19.487Z,4.20
2022-11-21T20:08:55.821Z,4.20
2022-11-21T20:11:25.147Z,4.20
2022-11-21T20:13:53.488Z,4.30
2022-11-21T20:16:23.898Z,4.20
2022-11-21T20:18:52.783Z,4.20
2022-11-21T20:21:21.345Z,4.20
2022-11-21T20:23:51.028Z,4.20
2022-11-21T20:26:20.746Z,4.20
2022-11-21T20:28:49.678Z,4.20
2022-11-21T20:31:20.074Z,4.20
2022-11-21T20:33:49.689Z,4.20
2022-11-21T20:36:19.824Z,4.20
2022-11-21T20:38:54.051Z,4.20
2022-11-21T20:41:23.495Z,4.10
2022-11-21T20:46:43.274Z,4.10
2022-11-21T20:53:52.022Z,4.00
2022-11-21T20:56:27.619Z,4.10
2022-11-21T20:58:55.870Z,4.00
2022-11-21T21:01:24.291Z,4.10
2022-11-21T21:03:52.524Z,4.00
2022-11-21T21:06:20.993Z,4.00
2022-11-21T21:08:49.073Z,4.10
2022-11-21T21:11:44.551Z,4.00
2022-11-21T21:14:08.072Z,4.00
2022-11-21T21:16:36.352Z,4.00
2022-11-21T21:19:04.490Z,4.10
2022-11-21T21:21:32.553Z,4.10
2022-11-21T21:24:02.200Z,4.00
2022-11-21T21:26:34.585Z,4.10
2022-11-21T21:29:08.417Z,4.00
2022-11-21T21:31:36.428Z,4.00
2022-11-21T21:34:04.544Z,4.00
2022-11-21T21:36:32.627Z,4.00
2022-11-21T21:39:01.524Z,4.00
2022-11-21T21:41:31.400Z,4.00
2022-11-21T21:43:59.740Z,4.00
2022-11-21T21:46:29.486Z,4.00
2022-11-21T21:48:59.021Z,4.00
2022-11-21T21:51:29.045Z,4.00
2022-11-21T21:53:59.022Z,3.90
2022-11-21T21:56:29.446Z,4.00
2022-11-21T21:58:58.586Z,3.90
2022-11-21T22:01:29.781Z,3.90
2022-11-21T22:03:59.671Z,3.90
2022-11-21T22:06:28.146Z,3.90
2022-11-21T22:08:57.168Z,3.80
2022-11-21T22:11:26.937Z,3.80
2022-11-21T22:13:56.369Z,3.90
2022-11-21T22:16:28.695Z,3.90
2022-11-21T22:18:58.472Z,3.90
2022-11-21T22:21:28.053Z,4.00
2022-11-21T22:26:46.857Z,3.90
2022-11-21T22:29:14.979Z,3.90
2022-11-21T22:31:43.060Z,3.90
2022-11-21T22:34:13.662Z,4.00
2022-11-21T22:36:41.848Z,4.00
2022-11-21T22:39:10.510Z,3.90
2022-11-21T22:41:38.584Z,3.90
2022-11-21T22:44:06.876Z,3.90
2022-11-21T22:46:34.905Z,3.90
2022-11-21T22:49:03.653Z,3.90
2022-11-21T22:51:33.040Z,3.90
2022-11-21T22:54:01.089Z,3.90
2022-11-21T22:56:29.277Z,3.90
2022-11-21T22:58:57.372Z,3.90
2022-11-21T23:01:27.097Z,3.90
2022-11-21T23:03:56.566Z,3.90
2022-11-21T23:06:26.525Z,3.90
2022-11-21T23:08:57.387Z,3.90
2022-11-21T23:11:27.929Z,3.90
2022-11-21T23:13:57.405Z,3.90
2022-11-21T23:16:26.451Z,3.90
2022-11-21T23:18:55.530Z,4.00
2022-11-21T23:21:24.028Z,4.00
2022-11-21T23:23:52.137Z,4.00
2022-11-21T23:26:21.523Z,4.00
2022-11-21T23:28:49.627Z,4.00
2022-11-21T23:31:17.688Z,4.00
2022-11-21T23:33:45.837Z,4.00
2022-11-21T23:36:14.191Z,4.00
2022-11-21T23:38:42.951Z,4.00
2022-11-21T23:41:10.945Z,4.00
2022-11-21T23:43:40.418Z,4.00
2022-11-21T23:46:08.390Z,4.00
2022-11-21T23:48:36.587Z,4.00
2022-11-21T23:51:04.626Z,4.00
2022-11-21T23:53:32.744Z,3.90
2022-11-21T23:56:00.758Z,4.00
2022-11-21T23:58:36.761Z,4.00
